aviador You're here:

KALW Decoded Metar

WALLA WALLA in WA, USA
Report Time2018-01-23 04:53:00
UTC Time2018-01-23 05:44:44
Flight Rules vfr VFR
Wind160° at 06 kt
W.Decomp.*RWY 16: 5.6 kt HW 2.1 kt LCW
RWY 20: 3.0 kt HW 5.2 kt LCW
RWY 07: 2.1 kt HW 5.6 kt RCW
W.Rank160° ranks 10
Current wind is below 160° avg. (7.2)
Visibility9999 m
Phenomena:N/A
Clouds:N/A
Expected CloudBase > 2,000 ft AGL from Temp-Dew spread
CeilingNone
Temp05°C (ISA -8)
Dew Point00°C (70% RH)
AAT0.9°C
QNH1026 hPa
Density Alt-82 ft
Elevation1,191 ft
Report Wrong Elevation
Raw Report
KALW 230453Z AUTO 16006KT 10SM CLR 05/00 A3029 RMK AO2 SLP264
T00500000=

Extra information for KALW:More info

Metar Taf Metar & Taf Last 4 Metars F.Rules Stats Wind Profile Meteogram Temp Stats Airport Information Weather charts Add Link Nearby VenuesMetar ALERT Operation Metar Decoded Social comments

AIRNAV info for KALW